Time;durP1;ratioP1;P1;durP2;ratioP2;P2;SDS_P1;SDS_P2;PMS_P1;PMS_P2;Temp;Humidity;BMP_temperature;BMP_pressure;BME280_temperature;BME280_humidity;BME280_pressure;Samples;Min_cycle;Max_cycle;Signal;HPM_P1;HPM_P2
2023/05/23 00:00:13;;;;;;;13.25;8.80;;;;;;;14.93;100.00;95553.50;1034230;28;20100;-72
2023/05/23 00:00:43;;;;;;;10.90;7.85;;;;;;;14.90;100.00;95548.03;1034522;28;20014;-72
2023/05/23 00:01:15;;;;;;;12.82;8.75;;;;;;;14.94;100.00;95552.41;1033765;28;20506;-71
2023/05/23 00:01:46;;;;;;;10.35;8.05;;;;;;;14.93;100.00;95547.44;1034143;28;20018;-72
2023/05/23 00:02:16;;;;;;;9.98;7.68;;;;;;;14.95;100.00;95553.97;1038384;28;20022;-72
2023/05/23 00:02:47;;;;;;;10.40;7.60;;;;;;;14.94;100.00;95562.97;1034318;28;20026;-71
2023/05/23 00:03:21;;;;;;;11.43;7.88;;;;;;;14.93;100.00;95552.72;1034296;28;20018;-72
2023/05/23 00:03:55;;;;;;;10.50;8.30;;;;;;;14.87;100.00;95546.75;1031614;28;20038;-72
2023/05/23 00:04:25;;;;;;;11.98;8.43;;;;;;;14.90;100.00;95558.59;1026065;28;20027;-72
2023/05/23 00:04:57;;;;;;;10.65;7.50;;;;;;;14.79;100.00;95544.81;1030336;28;20061;-72
2023/05/23 00:05:28;;;;;;;17.27;8.38;;;;;;;14.85;100.00;95560.25;1019244;28;20090;-72
2023/05/23 00:05:58;;;;;;;12.23;7.75;;;;;;;14.83;100.00;95553.69;1023324;28;20702;-73
2023/05/23 00:06:29;;;;;;;10.98;7.78;;;;;;;14.81;100.00;95553.19;1026120;28;20093;-73
2023/05/23 00:06:59;;;;;;;17.15;8.07;;;;;;;14.80;100.00;95554.28;1022137;28;20122;-72
2023/05/23 00:07:31;;;;;;;10.57;7.78;;;;;;;14.82;100.00;95550.28;1022226;29;20066;-72
2023/05/23 00:08:01;;;;;;;12.07;7.57;;;;;;;14.84;100.00;95552.59;1022546;28;20037;-72
2023/05/23 00:08:32;;;;;;;13.02;8.20;;;;;;;14.83;100.00;95557.13;1023176;28;20038;-72
2023/05/23 00:09:02;;;;;;;11.15;7.80;;;;;;;14.88;100.00;95552.81;1030484;28;20057;-72
2023/05/23 00:09:33;;;;;;;9.80;7.50;;;;;;;14.83;100.00;95541.25;1038008;28;20663;-73
2023/05/23 00:10:04;;;;;;;11.13;7.75;;;;;;;14.91;100.00;95554.84;1030372;28;20030;-72
2023/05/23 00:10:34;;;;;;;11.55;8.05;;;;;;;14.89;100.00;95557.00;1025815;28;20434;-73
2023/05/23 00:11:05;;;;;;;16.70;9.35;;;;;;;14.89;100.00;95554.34;1021870;29;20027;-72
2023/05/23 00:11:36;;;;;;;10.02;7.85;;;;;;;14.90;100.00;95550.66;1021994;29;20138;-72
2023/05/23 00:12:06;;;;;;;11.68;8.73;;;;;;;14.90;100.00;95550.66;1022556;28;20452;-72
2023/05/23 00:12:38;;;;;;;13.05;8.43;;;;;;;14.93;100.00;95555.34;1026540;28;20058;-72
2023/05/23 00:13:11;;;;;;;13.35;8.55;;;;;;;14.98;100.00;95549.97;1030548;28;20026;-72
2023/05/23 00:13:41;;;;;;;11.18;7.95;;;;;;;15.00;100.00;95555.75;1030083;28;20046;-72
2023/05/23 00:14:15;;;;;;;9.93;7.45;;;;;;;14.97;100.00;95549.19;1030347;28;20124;-74
2023/05/23 00:14:45;;;;;;;11.70;7.28;;;;;;;15.00;100.00;95553.09;1029597;28;20527;-72
2023/05/23 00:15:16;;;;;;;11.90;7.63;;;;;;;15.00;100.00;95550.47;1029836;28;20031;-73
2023/05/23 00:15:47;;;;;;;10.40;8.00;;;;;;;15.02;100.00;95553.56;1030245;28;20038;-72
2023/05/23 00:16:18;;;;;;;10.93;7.90;;;;;;;15.03;100.00;95555.16;1026858;28;20026;-72
2023/05/23 00:16:48;;;;;;;10.88;8.38;;;;;;;15.07;100.00;95556.13;1026291;28;20030;-72
2023/05/23 00:17:20;;;;;;;11.25;8.05;;;;;;;15.10;100.00;95560.81;1027110;28;20026;-72
2023/05/23 00:17:51;;;;;;;11.20;8.02;;;;;;;15.05;100.00;95552.97;1026421;28;20033;-72
2023/05/23 00:18:23;;;;;;;11.38;8.75;;;;;;;15.14;100.00;95556.50;1026730;28;20030;-73
2023/05/23 00:18:56;;;;;;;11.23;8.07;;;;;;;15.14;100.00;95553.88;1030081;28;20042;-72
2023/05/23 00:19:26;;;;;;;15.02;8.27;;;;;;;15.18;100.00;95556.69;1028200;28;20125;-72
2023/05/23 00:19:57;;;;;;;12.13;7.93;;;;;;;15.18;100.00;95557.47;1022844;28;20569;-72
2023/05/23 00:20:28;;;;;;;12.93;8.77;;;;;;;15.14;100.00;95545.94;1022671;28;20031;-73
2023/05/23 00:20:58;;;;;;;11.18;8.20;;;;;;;15.18;100.00;95551.41;1025914;28;20053;-72
2023/05/23 00:21:29;;;;;;;12.50;8.70;;;;;;;15.20;100.00;95550.03;1018020;29;20328;-72
2023/05/23 00:21:59;;;;;;;12.45;8.48;;;;;;;15.18;100.00;95541.63;1022353;28;20031;-72
2023/05/23 00:22:30;;;;;;;10.80;7.97;;;;;;;15.23;100.00;95544.16;1022815;29;20027;-72
2023/05/23 00:23:02;;;;;;;12.25;7.90;;;;;;;15.24;100.00;95548.38;1018287;29;20520;-71
2023/05/23 00:23:32;;;;;;;9.65;7.97;;;;;;;15.24;100.00;95556.28;1018481;29;20031;-72
2023/05/23 00:24:03;;;;;;;12.35;8.55;;;;;;;15.19;100.00;95548.50;1026354;28;20019;-73
2023/05/23 00:24:34;;;;;;;9.82;7.75;;;;;;;15.25;100.00;95547.28;1034556;28;20026;-72
2023/05/23 00:25:05;;;;;;;11.15;7.43;;;;;;;15.24;100.00;95542.31;1038371;28;20234;-71
2023/05/23 00:25:36;;;;;;;12.07;7.95;;;;;;;15.19;100.00;95542.41;1026169;28;20110;-72
2023/05/23 00:26:10;;;;;;;14.63;8.85;;;;;;;15.25;100.00;95547.28;1023493;28;20038;-72
2023/05/23 00:26:40;;;;;;;12.02;8.10;;;;;;;15.22;100.00;95536.53;1018336;29;20023;-72
2023/05/23 00:27:11;;;;;;;13.88;8.00;;;;;;;15.24;100.00;95547.59;1026642;28;20027;-72
2023/05/23 00:27:41;;;;;;;11.02;8.57;;;;;;;15.22;100.00;95549.72;1030387;28;20021;-72
2023/05/23 00:28:12;;;;;;;11.80;8.80;;;;;;;15.23;100.00;95544.16;1029489;28;20089;-73
2023/05/23 00:28:42;;;;;;;10.77;8.15;;;;;;;15.25;100.00;95549.91;1033303;28;20484;-72
2023/05/23 00:29:15;;;;;;;12.23;8.32;;;;;;;15.23;100.00;95540.75;1030289;28;20026;-73
2023/05/23 00:29:45;;;;;;;10.68;7.47;;;;;;;15.25;100.00;95552.56;1037692;28;20558;-72
2023/05/23 00:30:16;;;;;;;11.85;8.18;;;;;;;15.25;100.00;95546.50;1034275;28;20018;-72
2023/05/23 00:30:47;;;;;;;13.10;8.90;;;;;;;15.24;100.00;95545.72;1030258;28;20882;-72
2023/05/23 00:31:18;;;;;;;11.43;8.77;;;;;;;15.28;100.00;95546.69;1028927;28;20500;-73
2023/05/23 00:31:48;;;;;;;13.05;7.97;;;;;;;15.25;100.00;95547.28;1022047;29;20035;-72
2023/05/23 00:32:19;;;;;;;12.30;8.13;;;;;;;15.27;100.00;95545.13;1022499;28;20019;-72
2023/05/23 00:32:51;;;;;;;10.07;8.13;;;;;;;15.24;100.00;95545.72;1026224;28;20030;-72
2023/05/23 00:33:22;;;;;;;10.93;8.43;;;;;;;15.25;100.00;95549.16;1038422;28;20024;-72
2023/05/23 00:33:52;;;;;;;13.18;8.40;;;;;;;15.24;100.00;95548.38;1038166;28;20550;-72
2023/05/23 00:34:23;;;;;;;12.38;9.10;;;;;;;15.28;100.00;95551.19;1030125;28;20463;-72
2023/05/23 00:34:54;;;;;;;10.60;7.80;;;;;;;15.29;100.00;95544.81;1029890;28;20029;-72
2023/05/23 00:35:25;;;;;;;10.32;8.05;;;;;;;15.23;100.00;95536.25;1026203;28;20427;-72
2023/05/23 00:35:55;;;;;;;12.60;8.50;;;;;;;15.29;100.00;95545.63;1018657;28;20023;-73
2023/05/23 00:36:26;;;;;;;12.05;8.55;;;;;;;15.31;100.00;95538.16;1021994;28;20781;-73
2023/05/23 00:36:57;;;;;;;9.68;7.80;;;;;;;15.32;100.00;95547.69;1022225;29;20449;-73
2023/05/23 00:37:27;;;;;;;12.25;8.43;;;;;;;15.33;100.00;95546.59;1026351;28;20018;-72
2023/05/23 00:37:57;;;;;;;12.93;8.98;;;;;;;15.35;100.00;95548.16;1031163;28;20033;-72
2023/05/23 00:38:28;;;;;;;10.75;8.50;;;;;;;15.37;100.00;95548.66;1034221;28;20072;-72
2023/05/23 00:39:01;;;;;;;18.05;9.15;;;;;;;15.37;100.00;95552.06;1034082;28;20049;-73
2023/05/23 00:39:31;;;;;;;11.05;8.05;;;;;;;15.36;100.00;95553.16;1030398;28;20014;-72
2023/05/23 00:40:02;;;;;;;11.27;8.43;;;;;;;15.39;100.00;95551.75;1033897;28;20037;-72
2023/05/23 00:40:33;;;;;;;9.80;7.65;;;;;;;15.39;100.00;95547.28;1030468;28;20221;-73
2023/05/23 00:41:04;;;;;;;9.93;8.00;;;;;;;15.40;100.00;95548.84;1029603;28;20054;-72
2023/05/23 00:41:35;;;;;;;10.57;8.25;;;;;;;15.39;100.00;95536.69;1032743;28;20046;-72
2023/05/23 00:42:06;;;;;;;11.05;8.45;;;;;;;15.42;100.00;95535.31;1034130;28;20022;-71
2023/05/23 00:42:36;;;;;;;11.07;8.15;;;;;;;15.43;100.00;95544.81;1034277;28;20455;-71
2023/05/23 00:43:07;;;;;;;15.15;8.63;;;;;;;15.44;100.00;95546.38;1034429;28;20017;-72
2023/05/23 00:43:37;;;;;;;12.00;8.07;;;;;;;15.37;100.00;95532.78;1034428;28;20617;-72
2023/05/23 00:44:08;;;;;;;11.15;8.20;;;;;;;15.42;100.00;95545.88;1029965;28;20029;-72
2023/05/23 00:44:39;;;;;;;11.70;8.23;;;;;;;15.43;100.00;95544.81;1030031;28;20030;-72
2023/05/23 00:45:11;;;;;;;11.45;8.10;;;;;;;15.43;100.00;95547.47;1034333;28;20057;-72
2023/05/23 00:45:41;;;;;;;10.95;8.27;;;;;;;15.40;100.00;95542.78;1030545;28;20109;-72
2023/05/23 00:46:12;;;;;;;10.27;8.38;;;;;;;15.43;100.00;95547.47;1026112;28;20026;-72
2023/05/23 00:46:43;;;;;;;11.57;8.40;;;;;;;15.41;100.00;95552.25;1018890;29;20034;-72
2023/05/23 00:47:13;;;;;;;15.43;8.80;;;;;;;15.40;100.00;95543.53;1022151;29;20027;-72
2023/05/23 00:47:45;;;;;;;11.65;8.43;;;;;;;15.40;100.00;95540.13;1026107;28;20109;-72
2023/05/23 00:48:16;;;;;;;12.60;8.68;;;;;;;15.40;100.00;95543.53;1028075;28;20034;-72
2023/05/23 00:48:46;;;;;;;15.48;9.20;;;;;;;15.41;100.00;95552.25;1029835;28;20481;-71
2023/05/23 00:49:19;;;;;;;12.38;8.35;;;;;;;15.37;100.00;95543.38;1026205;28;20027;-73
2023/05/23 00:49:49;;;;;;;13.45;9.02;;;;;;;15.41;100.00;95554.91;1030026;28;20375;-72
2023/05/23 00:50:19;;;;;;;11.60;9.10;;;;;;;15.38;100.00;95548.34;1034159;28;20495;-72
2023/05/23 00:50:50;;;;;;;10.15;8.60;;;;;;;15.39;100.00;95552.56;1022094;29;20027;-72
2023/05/23 00:51:21;;;;;;;10.93;8.57;;;;;;;15.40;100.00;95554.13;1021338;28;20039;-72
2023/05/23 00:51:51;;;;;;;13.13;9.32;;;;;;;15.41;100.00;95550.38;1021942;29;20067;-73
2023/05/23 00:52:21;;;;;;;11.45;8.93;;;;;;;15.39;100.00;95551.75;1022383;28;20023;-72
2023/05/23 00:52:52;;;;;;;14.27;9.35;;;;;;;15.39;100.00;95551.75;1030149;28;20026;-73
2023/05/23 00:53:23;;;;;;;10.45;8.23;;;;;;;15.41;100.00;95558.31;1034136;28;20017;-72
2023/05/23 00:53:53;;;;;;;12.40;8.80;;;;;;;15.37;100.00;95548.66;1034112;28;20030;-72
2023/05/23 00:54:26;;;;;;;10.65;8.50;;;;;;;15.42;100.00;95551.16;1030087;28;20082;-73
2023/05/23 00:54:56;;;;;;;11.13;8.43;;;;;;;15.39;100.00;95555.22;1029509;28;20053;-72
2023/05/23 00:55:27;;;;;;;12.27;9.15;;;;;;;15.40;100.00;95554.13;1022473;28;20123;-72
2023/05/23 00:55:58;;;;;;;11.50;9.05;;;;;;;15.40;100.00;95559.41;1022927;28;20538;-72
2023/05/23 00:56:28;;;;;;;11.60;9.13;;;;;;;15.38;100.00;95556.28;1021967;29;20708;-72
2023/05/23 00:56:58;;;;;;;13.65;8.90;;;;;;;15.37;100.00;95557.34;1025938;28;20031;-72
2023/05/23 00:57:29;;;;;;;13.52;8.88;;;;;;;15.29;100.00;95548.28;1026128;28;20023;-72
2023/05/23 00:58:00;;;;;;;11.32;9.15;;;;;;;15.29;100.00;95548.28;1021995;28;20528;-72
2023/05/23 00:58:30;;;;;;;11.45;9.05;;;;;;;15.33;100.00;95554.53;1017991;29;20044;-73
2023/05/23 00:59:01;;;;;;;15.38;8.95;;;;;;;15.31;100.00;95554.03;1030075;28;20022;-72
2023/05/23 00:59:31;;;;;;;12.65;9.43;;;;;;;15.35;100.00;95561.38;1030263;28;20033;-72
2023/05/23 01:00:02;;;;;;;11.23;8.93;;;;;;;15.34;100.00;95555.31;1029908;28;20038;-72
2023/05/23 01:00:34;;;;;;;12.60;9.07;;;;;;;15.30;100.00;95555.13;1029661;28;20133;-72
2023/05/23 01:01:05;;;;;;;12.98;9.38;;;;;;;15.32;100.00;95557.44;1021478;28;20126;-72
2023/05/23 01:01:36;;;;;;;11.43;8.45;;;;;;;15.29;100.00;95553.56;1022292;28;20766;-71
2023/05/23 01:02:07;;;;;;;16.23;9.13;;;;;;;15.27;100.00;95557.56;1030280;28;20026;-72
2023/05/23 01:02:44;;;;;;;13.15;8.90;;;;;;;15.24;100.00;95552.88;1034160;28;20116;-71
2023/05/23 01:03:17;;;;;;;12.93;9.80;;;;;;;15.23;100.00;95557.38;1034061;28;20018;-73
2023/05/23 01:03:47;;;;;;;15.15;8.60;;;;;;;15.19;100.00;95561.72;1033875;28;20037;-72
2023/05/23 01:04:18;;;;;;;12.73;9.23;;;;;;;15.18;100.00;95560.13;1034264;28;20033;-72
2023/05/23 01:04:53;;;;;;;10.55;8.68;;;;;;;15.17;100.00;95555.13;1025932;28;20209;-72
2023/05/23 01:05:24;;;;;;;11.70;8.75;;;;;;;15.15;100.00;95560.72;1022031;28;20027;-72
2023/05/23 01:05:55;;;;;;;13.23;9.20;;;;;;;15.16;100.00;95564.16;1026088;28;20114;-71
2023/05/23 01:06:29;;;;;;;13.45;9.02;;;;;;;15.15;100.00;95568.63;1022198;29;20629;-71
2023/05/23 01:06:59;;;;;;;13.23;8.88;;;;;;;15.12;100.00;95569.22;1023754;28;20039;-72
2023/05/23 01:07:30;;;;;;;14.48;9.38;;;;;;;15.10;100.00;95563.47;1025420;28;20034;-72
2023/05/23 01:08:02;;;;;;;13.25;9.32;;;;;;;15.09;100.00;95569.84;1026698;28;20472;-72
2023/05/23 01:08:32;;;;;;;10.98;8.77;;;;;;;15.05;100.00;95564.34;1025930;28;20027;-72
2023/05/23 01:09:03;;;;;;;12.50;9.48;;;;;;;15.03;100.00;95563.09;1026012;28;20031;-71
2023/05/23 01:09:33;;;;;;;14.15;9.52;;;;;;;15.04;100.00;95569.94;1025803;28;20019;-73
2023/05/23 01:10:04;;;;;;;12.52;9.45;;;;;;;15.04;100.00;95567.28;1026248;28;20027;-72
2023/05/23 01:10:34;;;;;;;14.75;9.90;;;;;;;14.99;100.00;95559.44;1029479;28;20026;-72
2023/05/23 01:11:07;;;;;;;12.05;9.30;;;;;;;15.01;100.00;95566.00;1029394;28;20026;-72
2023/05/23 01:11:46;;;;;;;13.77;9.57;;;;;;;15.02;100.00;95564.94;1029950;28;20531;-72
2023/05/23 01:12:22;;;;;;;14.40;9.13;;;;;;;15.04;100.00;95569.94;1034138;28;20025;-71
2023/05/23 01:13:23;;;;;;;13.48;9.57;;;;;;;15.02;100.00;95569.44;1021987;29;20126;-72
2023/05/23 01:14:00;;;;;;;15.60;9.77;;;;;;;14.94;100.00;95557.69;1025190;28;20030;-71
2023/05/23 01:14:37;;;;;;;13.57;9.02;;;;;;;14.93;100.00;95565.94;1028204;28;20031;-71
2023/05/23 01:15:09;;;;;;;14.93;9.60;;;;;;;14.93;100.00;95568.56;1028223;28;20025;-71
2023/05/23 01:16:10;;;;;;;14.70;9.82;;;;;;;14.93;100.00;95563.28;1018164;28;20051;-72
2023/05/23 01:16:47;;;;;;;13.45;8.82;;;;;;;14.90;100.00;95567.28;1018575;28;20027;-72
2023/05/23 01:17:25;;;;;;;12.02;9.40;;;;;;;14.87;100.00;95561.81;1027504;28;20039;-72
2023/05/23 01:17:58;;;;;;;15.75;9.68;;;;;;;14.87;100.00;95561.81;1026129;28;20077;-71
2023/05/23 01:18:53;;;;;;;13.32;8.95;;;;;;;14.85;100.00;95564.72;1026037;28;20126;-72
2023/05/23 01:19:47;;;;;;;13.15;9.95;;;;;;;14.80;100.00;95570.13;1033989;28;20014;-71
2023/05/23 01:20:33;;;;;;;12.93;9.65;;;;;;;14.78;100.00;95573.03;1034253;28;20550;-72
2023/05/23 01:21:11;;;;;;;11.55;9.18;;;;;;;14.76;100.00;95575.22;1025904;28;20110;-71
2023/05/23 01:21:42;;;;;;;17.35;9.32;;;;;;;14.73;100.00;95570.50;1029937;28;20376;-72
2023/05/23 01:22:48;;;;;;;12.35;9.30;;;;;;;14.70;100.00;95581.66;1034066;28;20018;-71
2023/05/23 01:23:40;;;;;;;13.45;9.80;;;;;;;14.67;100.00;95574.31;1022094;28;20027;-72
2023/05/23 01:24:35;;;;;;;12.15;9.57;;;;;;;14.64;100.00;95580.19;1025593;28;20039;-72
2023/05/23 01:25:35;;;;;;;16.48;10.57;;;;;;;14.64;100.00;95580.19;1030226;28;20101;-71
2023/05/23 01:26:25;;;;;;;14.77;9.85;;;;;;;14.57;100.00;95571.88;1034092;28;20045;-72
2023/05/23 01:27:14;;;;;;;14.10;9.57;;;;;;;14.55;100.00;95566.09;1034211;28;20937;-72
2023/05/23 01:27:57;;;;;;;16.67;10.32;;;;;;;14.56;100.00;95572.94;1025819;28;20037;-72
2023/05/23 01:28:39;;;;;;;13.57;9.88;;;;;;;14.56;100.00;95580.88;1020798;28;20030;-72
2023/05/23 01:29:10;;;;;;;12.45;9.25;;;;;;;14.57;100.00;95585.06;1022135;29;20066;-72
2023/05/23 01:29:43;;;;;;;13.35;10.23;;;;;;;14.53;100.00;95578.81;1028959;28;20030;-72
2023/05/23 01:30:14;;;;;;;13.00;9.82;;;;;;;14.51;100.00;95575.66;1026096;28;20033;-72
2023/05/23 01:30:45;;;;;;;12.10;9.73;;;;;;;14.53;100.00;95578.81;1022046;28;20600;-72
2023/05/23 01:31:15;;;;;;;14.75;10.68;;;;;;;14.48;100.00;95573.56;1029269;28;20037;-71
2023/05/23 01:31:46;;;;;;;17.13;10.00;;;;;;;14.53;100.00;95578.81;1029924;28;20022;-72
2023/05/23 01:32:16;;;;;;;15.85;10.70;;;;;;;14.54;100.00;95580.38;1018165;29;20349;-72
2023/05/23 01:32:47;;;;;;;16.30;10.98;;;;;;;14.52;100.00;95585.16;1022543;28;20023;-71
2023/05/23 01:33:18;;;;;;;14.07;10.45;;;;;;;14.54;100.00;95583.00;1030162;28;20109;-73
2023/05/23 01:33:49;;;;;;;13.25;10.38;;;;;;;14.54;100.00;95586.44;1034112;28;20180;-72
2023/05/23 01:34:20;;;;;;;14.40;10.27;;;;;;;14.52;100.00;95582.50;1034034;28;20438;-71
2023/05/23 01:34:51;;;;;;;14.95;10.85;;;;;;;14.54;100.00;95586.44;1033871;28;20072;-72
2023/05/23 01:35:28;;;;;;;15.40;10.23;;;;;;;14.51;100.00;95570.38;1030153;28;20110;-72
2023/05/23 01:36:01;;;;;;;16.42;9.57;;;;;;;14.42;100.00;95566.81;1025816;28;20373;-72
2023/05/23 01:36:34;;;;;;;13.63;10.70;;;;;;;14.51;100.00;95573.03;1024617;28;20033;-71
2023/05/23 01:37:09;;;;;;;18.05;10.88;;;;;;;14.56;100.00;95581.66;1030003;28;20030;-72
2023/05/23 01:37:40;;;;;;;13.75;10.73;;;;;;;14.52;100.00;95578.03;1027319;28;20046;-71
2023/05/23 01:38:10;;;;;;;15.45;10.77;;;;;;;14.56;100.00;95583.50;1029740;28;20445;-72
2023/05/23 01:38:43;;;;;;;16.45;11.07;;;;;;;14.56;100.00;95584.28;1026746;28;20026;-71
2023/05/23 01:39:14;;;;;;;15.98;11.25;;;;;;;14.55;100.00;95581.94;1030047;28;20030;-72
2023/05/23 01:39:47;;;;;;;17.02;10.50;;;;;;;14.50;100.00;95584.63;1034360;28;20033;-72
2023/05/23 01:40:18;;;;;;;16.08;10.95;;;;;;;14.53;100.00;95584.09;1033997;28;20108;-72
2023/05/23 01:40:48;;;;;;;13.90;9.82;;;;;;;14.52;100.00;95585.16;1034083;28;20068;-72
2023/05/23 01:41:19;;;;;;;15.20;10.93;;;;;;;14.50;100.00;95577.53;1033731;28;20034;-72
2023/05/23 01:41:50;;;;;;;14.02;10.68;;;;;;;14.45;100.00;95576.78;1033966;28;20049;-72
2023/05/23 01:42:20;;;;;;;18.50;10.35;;;;;;;14.44;100.00;95573.38;1034063;28;20103;-72
2023/05/23 01:42:51;;;;;;;13.75;10.82;;;;;;;14.48;100.00;95581.50;1033992;28;20017;-72
2023/05/23 01:43:22;;;;;;;17.10;10.55;;;;;;;14.46;100.00;95581.03;1025479;28;20133;-72
2023/05/23 01:43:53;;;;;;;18.05;11.20;;;;;;;14.44;100.00;95575.22;1025964;28;20041;-72
2023/05/23 01:44:23;;;;;;;19.42;11.40;;;;;;;14.44;100.00;95583.94;1025908;28;20019;-72
2023/05/23 01:44:54;;;;;;;27.70;11.05;;;;;;;14.44;100.00;95585.78;1021914;29;20034;-72
2023/05/23 01:45:25;;;;;;;14.40;10.60;;;;;;;14.34;100.00;95565.63;1014300;29;20068;-72
2023/05/23 01:45:56;;;;;;;17.60;10.63;;;;;;;14.41;100.00;95583.72;1022039;29;20038;-72
2023/05/23 01:46:26;;;;;;;14.20;10.73;;;;;;;14.39;100.00;95579.53;1022991;28;20143;-73
2023/05/23 01:46:57;;;;;;;15.55;10.70;;;;;;;14.34;100.00;95581.47;1026256;28;20313;-71
2023/05/23 01:47:27;;;;;;;14.80;10.70;;;;;;;14.37;100.00;95592.22;1030400;28;20065;-72
2023/05/23 01:47:58;;;;;;;16.35;11.02;;;;;;;14.36;100.00;95588.03;1029891;28;20045;-72
2023/05/23 01:48:28;;;;;;;17.13;11.20;;;;;;;14.36;100.00;95590.66;1022040;29;20050;-72
2023/05/23 01:49:00;;;;;;;13.98;9.73;;;;;;;14.32;100.00;95587.06;1018070;29;20032;-73
2023/05/23 01:49:32;;;;;;;14.98;10.43;;;;;;;14.26;100.00;95575.00;1026051;28;20038;-72
2023/05/23 01:50:02;;;;;;;18.05;11.68;;;;;;;14.29;100.00;95585.00;1029793;28;20102;-72
2023/05/23 01:50:33;;;;;;;14.82;10.88;;;;;;;14.29;100.00;95589.50;1026025;28;20027;-72
2023/05/23 01:51:03;;;;;;;18.60;10.52;;;;;;;14.28;100.00;95596.59;1017432;29;20036;-72
2023/05/23 01:51:34;;;;;;;16.45;11.07;;;;;;;14.25;100.00;95593.75;1018153;28;20582;-72
2023/05/23 01:52:04;;;;;;;16.95;11.63;;;;;;;14.20;100.00;95585.94;1026135;28;20030;-72
2023/05/23 01:52:35;;;;;;;16.67;11.63;;;;;;;14.20;100.00;95585.94;1026216;28;20074;-72
2023/05/23 01:53:06;;;;;;;14.93;11.23;;;;;;;14.21;100.00;95585.63;1025808;28;20038;-72
2023/05/23 01:53:36;;;;;;;14.48;11.10;;;;;;;14.16;100.00;95588.38;1017969;29;20143;-72
2023/05/23 01:54:07;;;;;;;17.63;11.68;;;;;;;14.22;100.00;95589.84;1030013;28;20061;-72
2023/05/23 01:54:38;;;;;;;15.50;11.13;;;;;;;14.19;100.00;95589.66;1029976;28;20411;-72
2023/05/23 01:55:08;;;;;;;15.95;11.10;;;;;;;14.18;100.00;95585.44;1029761;28;20026;-72
2023/05/23 01:55:40;;;;;;;16.50;11.43;;;;;;;14.22;100.00;95599.59;1030050;28;20628;-72
2023/05/23 01:56:10;;;;;;;16.00;11.10;;;;;;;14.20;100.00;95599.91;1033883;28;20036;-71
2023/05/23 01:56:41;;;;;;;16.58;11.65;;;;;;;14.12;100.00;95584.75;1034213;28;20026;-72
2023/05/23 01:57:12;;;;;;;15.15;10.43;;;;;;;14.19;100.00;95595.72;1033991;28;20434;-73
2023/05/23 01:57:42;;;;;;;15.57;11.05;;;;;;;14.14;100.00;95595.78;1030073;28;20030;-72
2023/05/23 01:58:13;;;;;;;13.15;10.73;;;;;;;14.15;100.00;95597.34;1026077;28;20673;-72
2023/05/23 01:58:43;;;;;;;15.27;10.98;;;;;;;14.15;100.00;95602.63;1022245;28;20038;-73
2023/05/23 01:59:14;;;;;;;17.92;10.77;;;;;;;14.09;100.00;95595.88;1029945;28;20042;-73
2023/05/23 01:59:44;;;;;;;17.10;11.18;;;;;;;14.12;100.00;95601.34;1034016;28;20026;-73
2023/05/23 02:00:15;;;;;;;17.27;11.48;;;;;;;14.11;100.00;95601.63;1024485;28;20035;-72
2023/05/23 02:00:45;;;;;;;14.98;11.15;;;;;;;14.10;100.00;95597.44;1018078;29;20031;-72
2023/05/23 02:01:16;;;;;;;15.95;11.15;;;;;;;14.09;100.00;95598.50;1021008;28;20047;-72
2023/05/23 02:01:46;;;;;;;17.10;11.43;;;;;;;14.07;100.00;95598.00;1023275;28;20477;-72
2023/05/23 02:02:17;;;;;;;16.42;11.60;;;;;;;13.99;100.00;95593.41;1026153;28;20102;-73
2023/05/23 02:02:47;;;;;;;15.73;11.30;;;;;;;14.05;100.00;95606.22;1026082;28;20042;-73
2023/05/23 02:03:18;;;;;;;18.42;11.68;;;;;;;14.03;100.00;95603.06;1025912;28;20042;-72
2023/05/23 02:03:48;;;;;;;16.65;12.10;;;;;;;14.03;100.00;95599.66;1019925;28;20705;-72
2023/05/23 02:04:18;;;;;;;15.63;11.63;;;;;;;14.00;100.00;95603.66;1030956;28;20030;-73
2023/05/23 02:04:49;;;;;;;16.10;11.45;;;;;;;13.95;100.00;95589.75;1034784;28;20030;-73
2023/05/23 02:05:20;;;;;;;16.33;11.43;;;;;;;13.99;100.00;95602.09;1038744;28;20527;-72
2023/05/23 02:05:50;;;;;;;17.67;11.80;;;;;;;13.92;100.00;95596.41;1038886;28;20037;-73
2023/05/23 02:06:21;;;;;;;17.50;11.88;;;;;;;13.97;100.00;95598.94;1034950;28;20038;-73
2023/05/23 02:06:51;;;;;;;20.38;11.88;;;;;;;13.97;100.00;95596.31;1031571;28;20484;-73
2023/05/23 02:07:22;;;;;;;15.25;11.40;;;;;;;13.94;100.00;95593.47;1030734;28;20515;-73
2023/05/23 02:07:52;;;;;;;22.83;11.50;;;;;;;13.87;100.00;95589.31;1030834;28;20042;-73
2023/05/23 02:08:23;;;;;;;15.02;11.43;;;;;;;13.91;100.00;95595.59;1034753;28;20037;-72
2023/05/23 02:08:53;;;;;;;21.77;11.55;;;;;;;13.88;100.00;95598.00;1038410;28;20034;-73
2023/05/23 02:09:24;;;;;;;19.95;12.50;;;;;;;13.81;100.00;95585.19;1034745;28;20037;-73
2023/05/23 02:09:55;;;;;;;16.33;12.15;;;;;;;13.87;100.00;95599.09;1030567;28;20045;-73
2023/05/23 02:10:25;;;;;;;17.88;12.07;;;;;;;13.85;100.00;95590.69;1025057;28;20051;-73
2023/05/23 02:10:56;;;;;;;17.20;12.25;;;;;;;13.89;100.00;95592.47;1026632;28;20038;-72
2023/05/23 02:11:26;;;;;;;17.48;12.40;;;;;;;13.90;100.00;95598.53;1022049;29;20046;-72
2023/05/23 02:11:58;;;;;;;15.70;11.93;;;;;;;13.93;100.00;95600.59;1023348;28;20042;-73
2023/05/23 02:12:28;;;;;;;18.90;12.27;;;;;;;13.79;100.00;95576.03;1023186;28;20135;-72
2023/05/23 02:12:59;;;;;;;22.40;13.25;;;;;;;13.89;100.00;95595.09;1027172;28;20127;-73
2023/05/23 02:13:29;;;;;;;20.42;11.98;;;;;;;13.90;100.00;95599.31;1038753;28;20604;-73
2023/05/23 02:14:02;;;;;;;18.70;12.10;;;;;;;13.85;100.00;95588.84;1038572;28;20033;-73
2023/05/23 02:14:32;;;;;;;16.88;12.88;;;;;;;13.95;100.00;95600.28;1035149;28;20403;-73
2023/05/23 02:15:04;;;;;;;17.33;12.13;;;;;;;13.91;100.00;95590.31;1036820;28;20080;-72
2023/05/23 02:15:34;;;;;;;19.50;12.93;;;;;;;13.97;100.00;95598.94;1031611;28;20026;-73
2023/05/23 02:16:05;;;;;;;17.27;12.40;;;;;;;13.97;100.00;95595.53;1023025;28;20031;-72
2023/05/23 02:16:35;;;;;;;18.25;11.52;;;;;;;13.96;100.00;95596.59;1030872;28;20106;-73
2023/05/23 02:17:06;;;;;;;15.27;12.10;;;;;;;13.99;100.00;95598.66;1026450;28;20058;-72
2023/05/23 02:17:37;;;;;;;15.98;12.07;;;;;;;14.00;100.00;95601.00;1024342;28;20035;-73
2023/05/23 02:18:08;;;;;;;15.70;11.75;;;;;;;13.99;100.00;95590.75;1030582;28;20545;-73
2023/05/23 02:18:38;;;;;;;15.32;12.18;;;;;;;14.00;100.00;95605.50;1030929;28;20081;-73
2023/05/23 02:19:09;;;;;;;15.43;11.57;;;;;;;13.98;100.00;95602.34;1034403;28;20033;-72
2023/05/23 02:19:40;;;;;;;15.88;11.85;;;;;;;14.00;100.00;95598.38;1030790;28;20034;-72
2023/05/23 02:20:13;;;;;;;15.75;11.65;;;;;;;14.02;100.00;95600.75;1026600;28;20022;-72
2023/05/23 02:20:44;;;;;;;18.60;13.98;;;;;;;13.94;100.00;95591.59;1030638;28;20030;-73
2023/05/23 02:21:14;;;;;;;13.90;10.75;;;;;;;14.00;100.00;95606.28;1030139;28;20034;-72
2023/05/23 02:21:44;;;;;;;16.77;11.50;;;;;;;13.98;100.00;95605.00;1027749;28;20034;-72
2023/05/23 02:22:15;;;;;;;17.08;11.90;;;;;;;13.99;100.00;95601.31;1021848;28;20027;-72
2023/05/23 02:22:45;;;;;;;16.13;12.25;;;;;;;13.86;100.00;95587.00;1020233;28;20027;-72
2023/05/23 02:23:16;;;;;;;15.77;11.10;;;;;;;13.96;100.00;95604.53;1023333;28;20078;-72
2023/05/23 02:23:46;;;;;;;20.90;11.73;;;;;;;13.95;100.00;95608.22;1027455;28;20098;-72
2023/05/23 02:24:17;;;;;;;16.80;11.98;;;;;;;13.94;100.00;95606.66;1035207;28;20427;-71
2023/05/23 02:24:48;;;;;;;18.98;11.85;;;;;;;13.97;100.00;95603.44;1035308;28;20555;-72
2023/05/23 02:25:18;;;;;;;16.23;12.13;;;;;;;13.95;100.00;95610.84;1035375;28;20026;-72
2023/05/23 02:25:49;;;;;;;18.15;11.85;;;;;;;13.93;100.00;95610.38;1031161;28;20104;-72
2023/05/23 02:26:20;;;;;;;17.33;12.45;;;;;;;13.85;100.00;95602.03;1030868;28;20026;-72
2023/05/23 02:26:51;;;;;;;14.57;11.35;;;;;;;13.89;100.00;95607.53;1027465;28;20027;-72
2023/05/23 02:27:22;;;;;;;16.60;12.40;;;;;;;13.88;100.00;95606.75;1019686;29;20035;-72